Time;durP1;ratioP1;P1;durP2;ratioP2;P2;SDS_P1;SDS_P2;PMS_P1;PMS_P2;Temp;Humidity;BMP_temperature;BMP_pressure;BME280_temperature;BME280_humidity;BME280_pressure;Samples;Min_cycle;Max_cycle;Signal;HPM_P1;HPM_P2
2024/04/15 00:00:33;;;;;;;12.48;2.17;;;;;;;12.52;100.00;101593.38;5635150;26;19998;-73
2024/04/15 00:03:04;;;;;;;6.40;1.90;;;;;;;12.51;100.00;101589.00;5634211;26;20450;-72
2024/04/15 00:05:37;;;;;;;9.73;2.25;;;;;;;12.49;100.00;101587.47;5636446;26;20045;-72
2024/04/15 00:08:07;;;;;;;3.58;1.23;;;;;;;12.54;100.00;101580.59;5635751;26;19999;-72
2024/04/15 00:10:38;;;;;;;10.73;2.20;;;;;;;12.47;100.00;101571.50;5634658;26;20683;-73
2024/04/15 00:13:08;;;;;;;13.38;2.22;;;;;;;12.41;100.00;101562.22;5635843;26;20076;-73
2024/04/15 00:15:42;;;;;;;8.20;1.45;;;;;;;12.40;100.00;101559.69;5637159;26;19998;-72
2024/04/15 00:18:12;;;;;;;7.88;1.67;;;;;;;12.32;100.00;101546.19;5634379;26;19998;-72
2024/04/15 00:20:43;;;;;;;8.05;1.85;;;;;;;12.25;100.00;101547.81;5634788;26;19999;-72
2024/04/15 00:23:13;;;;;;;8.93;1.67;;;;;;;12.24;100.00;101548.81;5635683;26;20003;-72
2024/04/15 00:25:44;;;;;;;4.10;1.50;;;;;;;12.22;100.00;101550.84;5637105;26;20071;-73
2024/04/15 00:28:14;;;;;;;8.77;2.22;;;;;;;12.19;100.00;101558.22;5636159;26;20010;-73
2024/04/15 00:30:46;;;;;;;10.27;2.63;;;;;;;12.21;100.00;101543.78;5635133;26;19999;-73
2024/04/15 00:33:18;;;;;;;8.63;1.83;;;;;;;12.16;100.00;101537.03;5633801;26;19999;-73
2024/04/15 00:35:49;;;;;;;8.05;1.67;;;;;;;12.16;100.00;101533.50;5634924;26;20010;-72
2024/04/15 00:38:19;;;;;;;9.57;1.80;;;;;;;12.12;100.00;101535.66;5635705;26;19995;-72
2024/04/15 00:40:50;;;;;;;5.43;1.65;;;;;;;12.04;100.00;101516.78;5634005;26;20011;-73
2024/04/15 00:43:20;;;;;;;6.28;1.90;;;;;;;11.97;100.00;101509.53;5636304;26;20003;-73
2024/04/15 00:45:51;;;;;;;6.35;1.83;;;;;;;11.86;100.00;101502.56;5636513;26;20003;-72
2024/04/15 00:48:22;;;;;;;9.25;1.90;;;;;;;11.78;100.00;101510.53;5636314;26;19999;-73
2024/04/15 00:50:52;;;;;;;12.10;2.03;;;;;;;11.72;100.00;101497.75;5633782;26;20071;-72
2024/04/15 00:53:23;;;;;;;6.18;1.83;;;;;;;11.66;100.00;101497.38;5635119;26;19999;-72
2024/04/15 00:55:56;;;;;;;9.23;2.28;;;;;;;11.63;100.00;101496.84;5636017;26;20007;-72
2024/04/15 00:58:27;;;;;;;5.85;1.90;;;;;;;11.58;100.00;101505.38;5635309;26;20003;-72
2024/04/15 01:00:58;;;;;;;11.07;2.35;;;;;;;11.56;100.00;101511.91;5635159;26;20014;-72
2024/04/15 01:03:29;;;;;;;9.23;2.50;;;;;;;11.49;100.00;101514.34;5636398;26;20061;-72
2024/04/15 01:06:01;;;;;;;6.63;1.98;;;;;;;11.43;100.00;101498.03;5635409;26;19998;-72
2024/04/15 01:08:32;;;;;;;8.02;1.65;;;;;;;11.35;100.00;101493.44;5635504;26;20009;-72
2024/04/15 01:11:03;;;;;;;9.45;1.90;;;;;;;11.29;100.00;101492.19;5632382;26;20068;-72
2024/04/15 01:13:34;;;;;;;10.07;1.80;;;;;;;11.23;100.00;101491.97;5635835;26;19998;-72
2024/04/15 01:16:05;;;;;;;9.63;1.70;;;;;;;11.14;100.00;101483.88;5635113;26;20022;-72
2024/04/15 01:18:36;;;;;;;9.93;1.95;;;;;;;11.09;100.00;101482.63;5634329;26;20014;-72
2024/04/15 01:21:08;;;;;;;6.68;1.75;;;;;;;11.02;100.00;101481.56;5633848;26;20412;-72
2024/04/15 01:23:45;;;;;;;11.75;1.98;;;;;;;10.98;100.00;101475.66;5634654;26;20356;-72
2024/04/15 01:26:15;;;;;;;10.88;1.63;;;;;;;10.97;100.00;101482.03;5635596;26;19999;-73
2024/04/15 01:28:46;;;;;;;8.15;2.08;;;;;;;10.96;100.00;101477.66;5634966;26;20415;-72
2024/04/15 01:31:16;;;;;;;11.25;2.15;;;;;;;10.94;100.00;101468.91;5631671;26;19999;-72
2024/04/15 01:33:47;;;;;;;8.02;1.33;;;;;;;10.91;100.00;101471.91;5635740;26;20009;-72
2024/04/15 01:36:17;;;;;;;14.18;3.42;;;;;;;10.87;100.00;101470.50;5633938;26;20414;-72
2024/04/15 01:38:48;;;;;;;7.00;1.63;;;;;;;10.88;100.00;101469.50;5635075;26;20013;-72
2024/04/15 01:41:18;;;;;;;8.38;1.50;;;;;;;10.87;100.00;101460.63;5633273;26;20440;-72
2024/04/15 01:43:49;;;;;;;13.48;1.73;;;;;;;10.89;100.00;101465.81;5635709;26;20395;-72
2024/04/15 01:46:19;;;;;;;6.20;1.60;;;;;;;10.89;100.00;101457.78;5635231;26;20036;-72
2024/04/15 01:48:50;;;;;;;8.73;1.67;;;;;;;10.89;100.00;101452.41;5635261;26;20097;-72
2024/04/15 01:51:21;;;;;;;7.20;2.30;;;;;;;10.91;100.00;101450.44;5632752;26;20444;-72
2024/04/15 01:53:51;;;;;;;9.68;2.17;;;;;;;10.89;100.00;101444.34;5634357;26;20013;-72
2024/04/15 01:56:22;;;;;;;9.27;2.17;;;;;;;10.89;100.00;101437.16;5634785;26;20325;-72
2024/04/15 01:58:53;;;;;;;17.02;2.63;;;;;;;10.92;100.00;101433.31;5634806;26;19998;-72
2024/04/15 02:01:23;;;;;;;10.52;2.47;;;;;;;10.92;100.00;101433.31;5633453;26;20003;-72
2024/04/15 02:03:56;;;;;;;14.65;2.53;;;;;;;10.95;100.00;101429.50;5634941;26;20035;-72
2024/04/15 02:06:27;;;;;;;16.42;1.90;;;;;;;10.97;100.00;101433.69;5629808;26;20035;-72
2024/04/15 02:08:58;;;;;;;12.27;2.70;;;;;;;11.00;100.00;101429.88;5634101;26;20079;-72
2024/04/15 02:11:28;;;;;;;10.30;2.00;;;;;;;11.01;100.00;101415.44;5631848;26;19999;-72
2024/04/15 02:13:59;;;;;;;9.80;1.50;;;;;;;11.01;100.00;101423.50;5634926;26;20003;-72
2024/04/15 02:16:30;;;;;;;7.13;1.90;;;;;;;11.01;100.00;101410.91;5634914;26;20592;-72
2024/04/15 02:19:00;;;;;;;7.90;1.88;;;;;;;11.05;100.00;101401.56;5634558;26;20010;-72
2024/04/15 02:21:31;;;;;;;11.48;1.92;;;;;;;11.09;100.00;101410.13;5632405;26;20359;-72
2024/04/15 02:24:01;;;;;;;9.93;1.80;;;;;;;11.04;100.00;101393.63;5634612;26;20072;-72
2024/04/15 02:26:32;;;;;;;7.85;1.75;;;;;;;11.04;100.00;101412.44;5634475;26;20038;-72
2024/04/15 02:29:02;;;;;;;12.52;2.05;;;;;;;11.02;100.00;101401.00;5633912;26;19994;-72
2024/04/15 02:31:33;;;;;;;8.52;1.85;;;;;;;11.04;100.00;101396.31;5632896;26;20002;-72
2024/04/15 02:34:04;;;;;;;23.25;2.55;;;;;;;11.04;100.00;101399.84;5634100;26;19994;-72
2024/04/15 02:36:34;;;;;;;6.55;2.30;;;;;;;11.05;100.00;101398.88;5633618;26;20326;-72
2024/04/15 02:39:05;;;;;;;14.25;1.80;;;;;;;11.09;100.00;101402.94;5633623;26;20006;-72
2024/04/15 02:41:35;;;;;;;13.85;3.60;;;;;;;11.09;100.00;101397.56;5632803;26;20018;-72
2024/04/15 02:44:06;;;;;;;10.07;2.00;;;;;;;11.13;100.00;101396.22;5633968;26;20118;-72
2024/04/15 02:46:36;;;;;;;9.93;2.10;;;;;;;11.12;100.00;101397.25;5634735;26;20017;-71
2024/04/15 02:49:07;;;;;;;5.53;1.88;;;;;;;11.19;100.00;101386.69;5633900;26;19994;-72
2024/04/15 02:51:37;;;;;;;16.58;4.00;;;;;;;11.11;100.00;101384.81;5621474;26;19999;-72
2024/04/15 02:54:08;;;;;;;9.15;1.40;;;;;;;11.12;100.00;101377.59;5633441;26;20006;-72
2024/04/15 02:56:41;;;;;;;9.68;1.77;;;;;;;11.13;100.00;101380.13;5634815;26;20038;-72
2024/04/15 02:59:12;;;;;;;7.13;1.83;;;;;;;11.14;100.00;101372.91;5632937;26;20075;-72
2024/04/15 03:01:43;;;;;;;14.80;1.90;;;;;;;11.04;100.00;101381.06;5633767;26;20460;-72
2024/04/15 03:04:13;;;;;;;14.45;2.42;;;;;;;11.02;100.00;101375.00;5634782;26;19998;-72
2024/04/15 03:06:44;;;;;;;14.13;1.80;;;;;;;11.01;100.00;101372.50;5636492;26;20353;-72
2024/04/15 03:09:14;;;;;;;8.15;2.10;;;;;;;10.97;100.00;101369.25;5634874;26;20011;-73
2024/04/15 03:11:45;;;;;;;8.27;2.05;;;;;;;10.98;100.00;101368.25;5637594;26;20006;-71
2024/04/15 03:14:15;;;;;;;10.02;1.92;;;;;;;11.00;100.00;101370.81;5636990;26;19999;-72
2024/04/15 03:16:46;;;;;;;7.63;2.10;;;;;;;10.98;100.00;101372.78;5637427;26;20009;-71
2024/04/15 03:19:16;;;;;;;11.80;2.00;;;;;;;11.00;100.00;101370.81;5635013;26;19999;-72
2024/04/15 03:21:48;;;;;;;7.53;1.85;;;;;;;10.96;100.00;101364.91;5637411;26;20072;-71
2024/04/15 03:24:19;;;;;;;8.93;2.33;;;;;;;10.89;100.00;101364.69;5637006;26;20018;-72
2024/04/15 03:26:49;;;;;;;11.20;2.30;;;;;;;10.86;100.00;101362.31;5637552;26;20031;-71
2024/04/15 03:29:20;;;;;;;8.95;2.00;;;;;;;10.82;100.00;101357.41;5634982;26;20067;-71
2024/04/15 03:31:50;;;;;;;10.18;1.90;;;;;;;10.81;100.00;101353.88;5636597;26;20460;-72
2024/04/15 03:34:21;;;;;;;8.05;1.90;;;;;;;10.81;100.00;101348.50;5634473;26;20010;-72
2024/04/15 03:36:51;;;;;;;13.18;1.83;;;;;;;10.75;100.00;101343.78;5636971;26;20456;-71
2024/04/15 03:39:22;;;;;;;10.38;1.88;;;;;;;10.67;100.00;101334.81;5635152;26;19998;-72
2024/04/15 03:41:52;;;;;;;7.75;1.80;;;;;;;10.67;100.00;101332.97;5637406;26;20003;-71
2024/04/15 03:44:23;;;;;;;9.00;1.90;;;;;;;10.59;100.00;101328.38;5636316;26;20013;-72
2024/04/15 03:46:53;;;;;;;17.02;3.00;;;;;;;10.58;100.00;101323.16;5637061;26;19999;-72
2024/04/15 03:49:23;;;;;;;13.00;2.72;;;;;;;10.41;100.00;101322.16;5633526;26;20459;-72
2024/04/15 03:51:54;;;;;;;18.58;3.25;;;;;;;10.43;100.00;101317.47;5637021;26;19999;-72
2024/04/15 03:54:24;;;;;;;14.50;2.47;;;;;;;10.40;100.00;101315.13;5635003;26;20003;-72
2024/04/15 03:56:55;;;;;;;11.38;2.28;;;;;;;10.42;100.00;101309.59;5636413;26;20011;-71
2024/04/15 03:59:25;;;;;;;11.23;2.47;;;;;;;10.41;100.00;101308.75;5633541;26;20018;-72
2024/04/15 04:01:56;;;;;;;20.75;3.13;;;;;;;10.33;100.00;101308.69;5636446;26;19998;-71
2024/04/15 04:04:30;;;;;;;17.95;2.22;;;;;;;10.35;100.00;101296.81;5636094;26;20014;-72
2024/04/15 04:07:01;;;;;;;10.63;2.00;;;;;;;10.37;100.00;101291.28;5635673;26;19999;-72
2024/04/15 04:09:32;;;;;;;11.63;2.35;;;;;;;10.37;100.00;101286.75;5634999;26;20456;-72
2024/04/15 04:12:04;;;;;;;9.18;1.92;;;;;;;10.35;100.00;101291.44;5636129;26;19995;-71
2024/04/15 04:14:35;;;;;;;21.02;2.67;;;;;;;10.37;100.00;101294.81;5636099;26;20003;-71
2024/04/15 04:17:05;;;;;;;14.70;2.63;;;;;;;10.33;100.00;101290.75;5636074;26;20079;-72
2024/04/15 04:19:36;;;;;;;9.45;2.30;;;;;;;10.31;100.00;101281.19;5634777;26;20011;-72
2024/04/15 04:22:06;;;;;;;16.88;3.38;;;;;;;10.31;100.00;101273.13;5636488;26;20003;-71
2024/04/15 04:24:37;;;;;;;21.25;3.47;;;;;;;10.25;100.00;101269.22;5636204;26;20075;-71
2024/04/15 04:27:08;;;;;;;17.42;2.60;;;;;;;10.28;100.00;101263.53;5636254;26;20009;-72
2024/04/15 04:29:38;;;;;;;15.52;3.85;;;;;;;10.32;100.00;101264.94;5634137;26;20048;-72
2024/04/15 04:32:08;;;;;;;11.27;2.58;;;;;;;10.30;100.00;101256.19;5636045;26;20003;-72
2024/04/15 04:34:39;;;;;;;12.95;3.33;;;;;;;10.28;100.00;101260.03;5635557;26;20452;-72
2024/04/15 04:37:09;;;;;;;17.48;3.20;;;;;;;10.21;100.00;101258.94;5635490;26;20003;-72
2024/04/15 04:39:40;;;;;;;9.88;3.05;;;;;;;10.23;100.00;101265.81;5634530;26;20018;-72
2024/04/15 04:42:11;;;;;;;29.73;5.00;;;;;;;10.28;100.00;101265.38;5635897;26;20002;-72
2024/04/15 04:44:41;;;;;;;18.77;3.42;;;;;;;10.27;100.00;101258.34;5626349;26;20473;-75
2024/04/15 04:47:12;;;;;;;12.38;2.83;;;;;;;10.27;100.00;101267.22;5626310;26;20014;-75
2024/04/15 04:49:43;;;;;;;12.85;3.63;;;;;;;10.30;100.00;101264.25;5634833;26;20014;-74
2024/04/15 04:52:13;;;;;;;17.65;3.42;;;;;;;10.27;100.00;101255.66;5636008;26;20003;-71
2024/04/15 04:54:45;;;;;;;19.80;4.35;;;;;;;10.25;100.00;101257.66;5635728;26;20001;-71
2024/04/15 04:57:16;;;;;;;15.77;3.47;;;;;;;10.24;100.00;101258.63;5635428;26;20003;-71
2024/04/15 04:59:51;;;;;;;19.27;5.20;;;;;;;10.20;100.00;101252.72;5623370;26;20382;-72
2024/04/15 05:02:24;;;;;;;19.40;3.30;;;;;;;10.19;100.00;101244.81;5635617;26;19995;-71
2024/04/15 05:04:57;;;;;;;19.30;3.75;;;;;;;10.16;100.00;101250.50;5635027;26;19999;-71
2024/04/15 05:07:27;;;;;;;13.13;3.92;;;;;;;10.17;100.00;101236.09;5634969;26;20002;-71
2024/04/15 05:09:58;;;;;;;14.32;3.17;;;;;;;10.20;100.00;101239.31;5633528;26;20007;-72
2024/04/15 05:12:28;;;;;;;22.33;3.90;;;;;;;10.18;100.00;101243.16;5635417;26;19999;-71
2024/04/15 05:14:59;;;;;;;15.20;3.50;;;;;;;10.16;100.00;101231.75;5635351;26;20010;-73
2024/04/15 05:17:29;;;;;;;17.42;3.50;;;;;;;10.13;100.00;101228.34;5635713;26;20866;-72
2024/04/15 05:20:00;;;;;;;18.80;3.58;;;;;;;10.12;100.00;101232.03;5633176;26;20052;-71
2024/04/15 05:22:30;;;;;;;18.73;4.30;;;;;;;10.13;100.00;101227.50;5629029;26;20014;-72
2024/04/15 05:25:01;;;;;;;18.60;4.20;;;;;;;10.09;100.00;101221.66;5632743;26;19998;-71
2024/04/15 05:27:35;;;;;;;21.60;3.95;;;;;;;10.11;100.00;101233.03;5634004;26;20002;-71
2024/04/15 05:30:06;;;;;;;22.02;4.20;;;;;;;10.15;100.00;101227.38;5630353;26;19999;-72
2024/04/15 05:32:37;;;;;;;23.25;5.75;;;;;;;10.18;100.00;101221.69;5634405;26;20477;-72
2024/04/15 05:35:07;;;;;;;26.63;4.07;;;;;;;10.15;100.00;101213.97;5635083;26;19999;-72
2024/04/15 05:37:37;;;;;;;29.63;4.05;;;;;;;10.20;100.00;101217.03;5626332;26;20022;-71
2024/04/15 05:40:08;;;;;;;17.15;4.80;;;;;;;10.30;100.00;101201.72;5633571;26;20030;-71
2024/04/15 05:42:38;;;;;;;17.30;4.30;;;;;;;10.42;100.00;101202.31;5635256;26;20083;-71
2024/04/15 05:45:10;;;;;;;21.30;3.90;;;;;;;10.47;100.00;101200.84;5634675;26;20003;-71
2024/04/15 05:47:40;;;;;;;22.38;4.88;;;;;;;10.50;100.00;101205.91;5635311;26;19999;-72
2024/04/15 05:50:11;;;;;;;27.60;4.13;;;;;;;10.61;100.00;101205.63;5633060;26;19999;-71
2024/04/15 05:52:41;;;;;;;18.52;4.22;;;;;;;10.97;100.00;101213.56;5634721;26;20345;-72
2024/04/15 05:55:12;;;;;;;15.13;3.78;;;;;;;11.59;100.00;101210.59;5632701;26;20015;-72
2024/04/15 05:57:42;;;;;;;23.50;3.90;;;;;;;12.32;100.00;101201.81;5633426;26;20013;-72
2024/04/15 06:00:14;;;;;;;22.40;3.88;;;;;;;12.81;100.00;101207.16;5632804;26;20054;-72
2024/04/15 06:02:45;;;;;;;13.73;3.20;;;;;;;13.29;100.00;101210.69;5634169;26;20006;-72
2024/04/15 06:05:15;;;;;;;16.02;3.55;;;;;;;13.59;100.00;101196.41;5634330;26;20083;-72
2024/04/15 06:07:46;;;;;;;18.13;3.70;;;;;;;13.83;100.00;101194.56;5634485;26;20021;-72
2024/04/15 06:10:16;;;;;;;21.67;4.22;;;;;;;14.16;100.00;101176.28;5632366;26;19999;-72
2024/04/15 06:12:47;;;;;;;17.77;3.50;;;;;;;14.53;100.00;101177.31;5633063;26;20344;-72
2024/04/15 06:15:18;;;;;;;14.73;3.85;;;;;;;14.90;100.00;101174.53;5634813;26;20076;-72
2024/04/15 06:17:49;;;;;;;21.15;3.72;;;;;;;14.58;100.00;101172.22;5634499;26;20010;-72
2024/04/15 06:20:20;;;;;;;20.83;5.00;;;;;;;14.81;100.00;101167.56;5633011;26;19999;-72
2024/04/15 06:22:50;;;;;;;19.30;4.47;;;;;;;15.16;100.00;101157.88;5634528;26;20013;-72
2024/04/15 06:25:21;;;;;;;22.73;3.97;;;;;;;15.09;100.00;101148.81;5634941;26;20046;-72
2024/04/15 06:27:51;;;;;;;14.40;4.22;;;;;;;15.18;100.00;101149.56;5634694;26;20488;-72
2024/04/15 06:30:22;;;;;;;16.73;3.97;;;;;;;15.27;100.00;101134.91;5633007;26;20031;-72
2024/04/15 06:32:52;;;;;;;20.08;4.70;;;;;;;15.43;100.00;101147.34;5633589;26;20003;-72
2024/04/15 06:35:23;;;;;;;18.98;3.88;;;;;;;15.63;100.00;101142.16;5634270;26;20013;-72
2024/04/15 06:37:53;;;;;;;18.55;4.32;;;;;;;15.34;100.00;101133.09;5634063;26;20002;-72
2024/04/15 06:40:25;;;;;;;19.48;4.70;;;;;;;15.50;100.00;101132.03;5632689;26;19999;-72
2024/04/15 06:42:55;;;;;;;19.38;4.20;;;;;;;15.71;100.00;101126.69;5632455;26;19994;-73
2024/04/15 06:45:26;;;;;;;15.85;4.07;;;;;;;15.73;100.00;101124.63;5634209;26;20009;-72
2024/04/15 06:47:56;;;;;;;17.17;4.07;;;;;;;15.30;100.00;101123.69;5627638;26;19995;-72
2024/04/15 06:50:27;;;;;;;21.90;4.22;;;;;;;15.55;100.00;101125.03;5632638;26;20011;-72
2024/04/15 06:53:00;;;;;;;15.85;4.68;;;;;;;15.58;100.00;101113.00;5634156;26;20406;-72
2024/04/15 06:55:31;;;;;;;19.17;4.53;;;;;;;15.71;100.00;101117.72;5628272;26;19995;-72
2024/04/15 06:58:01;;;;;;;29.02;5.35;;;;;;;16.03;100.00;101113.66;5633671;26;19999;-72
2024/04/15 07:00:33;;;;;;;20.60;3.88;;;;;;;16.33;100.00;101108.06;5632574;26;20014;-72
2024/04/15 07:03:04;;;;;;;16.45;3.65;;;;;;;16.08;100.00;101099.53;5633509;26;20003;-73
2024/04/15 07:05:34;;;;;;;24.23;4.28;;;;;;;15.88;100.00;101094.78;5633626;26;19999;-72
2024/04/15 07:08:06;;;;;;;16.40;3.80;;;;;;;15.18;100.00;101090.09;5633654;26;20014;-72
2024/04/15 07:10:36;;;;;;;16.92;3.60;;;;;;;14.92;100.00;101077.97;5632145;26;19999;-72
2024/04/15 07:13:08;;;;;;;19.05;4.00;;;;;;;14.53;100.00;101078.28;5633340;26;20075;-72
2024/04/15 07:15:38;;;;;;;24.60;4.60;;;;;;;14.02;100.00;101063.78;5632626;26;20325;-72
2024/04/15 07:18:09;;;;;;;13.55;4.30;;;;;;;13.76;100.00;101053.41;5633610;26;20067;-72
2024/04/15 07:20:39;;;;;;;12.70;3.60;;;;;;;13.54;100.00;101047.00;5631916;26;20313;-72
2024/04/15 07:23:10;;;;;;;28.55;3.85;;;;;;;13.45;100.00;101055.16;5633271;26;20010;-72
2024/04/15 07:25:40;;;;;;;20.77;4.20;;;;;;;13.33;100.00;101034.19;5634013;26;20076;-72
2024/04/15 07:28:11;;;;;;;14.57;4.10;;;;;;;13.56;100.00;101020.72;5631266;26;20002;-72
2024/04/15 07:30:41;;;;;;;10.80;3.08;;;;;;;13.65;100.00;101023.13;5631437;26;20445;-73
2024/04/15 07:33:13;;;;;;;18.73;3.90;;;;;;;13.43;100.00;101011.38;5633102;26;20083;-73
2024/04/15 07:35:52;;;;;;;18.67;4.60;;;;;;;13.50;100.00;101014.16;5631630;26;19995;-73
2024/04/15 07:38:23;;;;;;;17.98;2.92;;;;;;;13.86;100.00;101008.97;5633685;26;20006;-73
2024/04/15 07:40:54;;;;;;;13.77;3.38;;;;;;;14.27;100.00;101008.53;5630056;26;20003;-73
2024/04/15 07:43:24;;;;;;;12.05;2.67;;;;;;;14.79;100.00;101015.66;5632699;26;20010;-73
2024/04/15 07:45:55;;;;;;;16.05;3.83;;;;;;;15.10;100.00;101006.44;5632632;26;20002;-72
2024/04/15 07:48:25;;;;;;;8.98;2.58;;;;;;;15.15;100.00;101007.53;5633506;26;20471;-73
2024/04/15 07:50:56;;;;;;;13.45;2.85;;;;;;;14.80;100.00;100998.44;5632996;26;19999;-73
2024/04/15 07:53:26;;;;;;;16.23;2.63;;;;;;;14.57;100.00;100990.47;5636762;26;20031;-73
2024/04/15 07:55:57;;;;;;;22.45;3.88;;;;;;;14.72;100.00;100994.00;5636894;26;20010;-73
2024/04/15 07:58:30;;;;;;;18.85;2.85;;;;;;;14.67;100.00;100992.88;5634768;26;19999;-73
2024/04/15 08:01:01;;;;;;;14.05;3.00;;;;;;;14.72;100.00;100977.78;5628379;26;20068;-73
2024/04/15 08:03:31;;;;;;;13.30;2.80;;;;;;;15.23;100.00;100979.56;5636433;26;20010;-73
2024/04/15 08:06:02;;;;;;;10.93;1.85;;;;;;;15.57;100.00;100968.00;5635458;26;20005;-73
2024/04/15 08:08:33;;;;;;;7.97;2.53;;;;;;;16.05;100.00;100955.44;5634808;26;20444;-73
2024/04/15 08:11:03;;;;;;;10.10;2.25;;;;;;;16.62;100.00;100947.16;5634565;26;20003;-73
2024/04/15 08:13:34;;;;;;;14.00;2.33;;;;;;;16.92;100.00;100939.56;5634767;26;20010;-73
2024/04/15 08:16:04;;;;;;;6.65;2.55;;;;;;;16.97;100.00;100945.22;5636569;26;20007;-73
2024/04/15 08:18:35;;;;;;;7.05;2.00;;;;;;;17.58;100.00;100934.19;5635058;26;20011;-73
2024/04/15 08:21:06;;;;;;;7.90;2.22;;;;;;;17.77;100.00;100929.78;5624440;26;20010;-73
2024/04/15 08:23:36;;;;;;;13.05;2.20;;;;;;;17.01;100.00;100922.06;5625322;26;20083;-73
2024/04/15 08:26:07;;;;;;;8.57;2.30;;;;;;;16.44;100.00;100907.94;5626813;26;20003;-73
2024/04/15 08:28:37;;;;;;;11.80;1.98;;;;;;;16.29;100.00;100920.81;5634194;26;20014;-73
2024/04/15 08:31:08;;;;;;;12.88;3.00;;;;;;;15.96;100.00;100912.53;5598418;26;20005;-73
2024/04/15 08:33:39;;;;;;;10.98;1.80;;;;;;;15.24;100.00;100919.06;5632808;26;20013;-73
2024/04/15 08:36:12;;;;;;;7.53;2.65;;;;;;;15.26;100.00;100898.06;5633149;26;20014;-73
2024/04/15 08:38:45;;;;;;;8.50;1.77;;;;;;;15.35;100.00;100886.09;5630322;26;20034;-73
2024/04/15 08:41:21;;;;;;;8.68;1.83;;;;;;;15.50;100.00;100873.31;5624797;26;20655;-73
2024/04/15 08:43:58;;;;;;;13.48;3.10;;;;;;;15.13;100.00;100871.81;5631083;26;20018;-73
2024/04/15 08:46:33;;;;;;;18.42;3.25;;;;;;;15.14;100.00;100880.75;5630362;26;19998;-73
2024/04/15 08:49:03;;;;;;;;;;;;;;;14.79;100.00;100871.69;5627809;26;20002;-73
2024/04/15 08:51:35;;;;;;;11.73;3.55;;;;;;;14.66;100.00;100877.78;5629280;26;19997;-73
2024/04/15 08:54:05;;;;;;;11.13;2.00;;;;;;;14.09;100.00;100874.00;5629785;26;20003;-73
2024/04/15 08:56:39;;;;;;;12.07;2.10;;;;;;;14.06;100.00;100860.09;5632813;26;20464;-73
2024/04/15 08:59:15;;;;;;;13.98;2.40;;;;;;;13.92;100.00;100846.41;5631526;26;20332;-73
2024/04/15 09:01:46;;;;;;;;;;;;;;;13.84;100.00;100842.97;5630563;26;20006;-73
2024/04/15 09:04:17;;;;;;;18.95;2.85;;;;;;;14.06;100.00;100833.09;5633146;26;20365;-73
2024/04/15 09:06:47;;;;;;;15.05;2.00;;;;;;;14.41;100.00;100829.56;5630572;26;20003;-73
2024/04/15 09:09:18;;;;;;;9.90;1.75;;;;;;;14.61;100.00;100827.09;5628055;26;20009;-73
2024/04/15 09:11:49;;;;;;;16.83;2.40;;;;;;;14.91;100.00;100819.69;5631535;26;20010;-73
2024/04/15 09:14:19;;;;;;;14.93;2.63;;;;;;;15.17;100.00;100805.53;5630528;26;20456;-73
2024/04/15 09:16:56;;;;;;;7.85;1.85;;;;;;;15.09;100.00;100789.47;5629160;26;19998;-73
2024/04/15 09:19:26;;;;;;;12.30;2.05;;;;;;;15.12;100.00;100783.66;5629055;26;20002;-73
2024/04/15 09:22:00;;;;;;;18.63;4.07;;;;;;;15.43;100.00;100777.00;5630031;26;20079;-73
2024/04/15 09:24:30;;;;;;;19.55;3.22;;;;;;;15.73;100.00;100775.72;5632209;26;19998;-73
2024/04/15 09:27:01;;;;;;;14.45;2.42;;;;;;;15.71;100.00;100758.88;5632220;26;20533;-73
2024/04/15 09:29:31;;;;;;;9.35;1.90;;;;;;;15.31;100.00;100763.19;5623274;26;20013;-73
2024/04/15 09:32:04;;;;;;;21.17;1.67;;;;;;;15.42;100.00;100741.03;5618131;26;20003;-73
2024/04/15 09:34:36;;;;;;;14.13;2.63;;;;;;;15.13;100.00;100747.50;5616949;26;20003;-73
2024/04/15 09:37:08;;;;;;;10.93;2.00;;;;;;;15.20;100.00;100732.16;5628318;26;19999;-73
2024/04/15 09:39:39;;;;;;;15.75;2.50;;;;;;;15.23;100.00;100731.75;5625987;26;20035;-73
2024/04/15 09:42:10;;;;;;;9.18;1.63;;;;;;;15.27;100.00;100703.31;5624909;26;20345;-73
2024/04/15 09:44:45;;;;;;;26.73;2.58;;;;;;;15.62;100.00;100695.13;5629301;26;19999;-73
2024/04/15 09:47:17;;;;;;;10.45;2.00;;;;;;;15.71;100.00;100699.38;5626237;26;20035;-73
2024/04/15 09:49:47;;;;;;;13.70;1.83;;;;;;;15.54;100.00;100684.50;5622705;26;20132;-73
2024/04/15 09:52:22;;;;;;;8.73;2.63;;;;;;;15.37;100.00;100688.59;5624657;26;20003;-73
2024/04/15 09:55:05;;;;;;;13.27;2.30;;;;;;;14.98;100.00;100674.69;5619694;26;20442;-73
2024/04/15 09:57:43;;;;;;;9.23;1.92;;;;;;;14.97;100.00;100661.38;5621674;26;20010;-73
2024/04/15 10:00:15;;;;;;;12.63;1.88;;;;;;;14.88;100.00;100689.56;5625411;26;20023;-73
2024/04/15 10:03:00;;;;;;;15.40;1.77;;;;;;;14.54;100.00;100676.88;5629939;26;20091;-73
2024/04/15 10:05:33;;;;;;;7.05;1.92;;;;;;;14.19;100.00;100664.09;5628061;26;20009;-73
2024/04/15 10:08:05;;;;;;;15.80;2.30;;;;;;;14.04;100.00;100651.72;5623550;26;20000;-74
2024/04/15 10:10:39;;;;;;;11.93;2.00;;;;;;;14.38;100.00;100634.78;5628858;26;19999;-73
2024/04/15 10:13:11;;;;;;;2.53;1.30;;;;;;;14.57;100.00;100627.91;5659584;26;20003;-73
2024/04/15 10:15:42;;;;;;;10.85;1.50;;;;;;;14.49;100.00;100642.38;5629158;26;20010;-73
2024/04/15 10:18:18;;;;;;;8.80;1.58;;;;;;;14.45;100.00;100628.38;5626739;26;20444;-73
2024/04/15 10:20:53;;;;;;;11.20;2.10;;;;;;;14.34;100.00;100628.09;5627082;26;19994;-73
2024/04/15 10:23:30;;;;;;;14.07;2.17;;;;;;;14.32;100.00;100616.69;5627946;26;19991;-73
2024/04/15 10:26:01;;;;;;;5.78;1.55;;;;;;;14.44;100.00;100613.25;5619149;26;20014;-73
2024/04/15 10:28:32;;;;;;;16.77;1.85;;;;;;;14.36;100.00;100580.19;5628593;26;20340;-73
2024/04/15 10:31:13;;;;;;;10.25;1.05;;;;;;;14.42;100.00;100569.44;5622226;26;20339;-73
2024/04/15 10:33:48;;;;;;;10.65;1.55;;;;;;;14.31;100.00;100569.13;5625512;26;20014;-73
2024/04/15 10:36:29;;;;;;;9.65;1.50;;;;;;;14.16;100.00;100575.47;5621964;26;20011;-73
2024/04/15 10:39:04;;;;;;;8.23;1.85;;;;;;;14.14;100.00;100558.63;5626666;26;20565;-73
2024/04/15 10:41:42;;;;;;;9.27;2.00;;;;;;;14.27;100.00;100541.72;5626599;26;20078;-73
2024/04/15 10:44:16;;;;;;;10.43;1.67;;;;;;;14.20;100.00;100540.84;5626032;26;20013;-73
2024/04/15 10:46:48;;;;;;;6.80;2.17;;;;;;;13.98;100.00;100537.38;5626942;26;20440;-73
2024/04/15 10:49:21;;;;;;;14.85;2.65;;;;;;;13.94;100.00;100536.91;5627976;26;20700;-73
2024/04/15 10:51:57;;;;;;;8.13;1.65;;;;;;;13.93;100.00;100535.25;5629240;26;20343;-73
2024/04/15 10:54:31;;;;;;;11.35;2.60;;;;;;;13.58;100.00;100523.56;5620424;26;20014;-73
2024/04/15 10:57:02;;;;;;;12.27;2.15;;;;;;;13.91;100.00;100520.31;5627407;26;20011;-73
2024/04/15 10:59:36;;;;;;;13.90;2.00;;;;;;;13.91;100.00;100507.66;5624480;26;20076;-73
2024/04/15 11:02:10;;;;;;;9.70;1.70;;;;;;;13.96;100.00;100497.13;5634988;26;20014;-73
2024/04/15 11:04:43;;;;;;;12.40;2.35;;;;;;;13.68;100.00;100490.88;5630875;26;20010;-73
2024/04/15 11:07:17;;;;;;;9.80;1.67;;;;;;;13.70;100.00;100486.13;5623178;26;19995;-73
2024/04/15 11:09:50;;;;;;;14.40;2.25;;;;;;;13.84;100.00;100478.97;5620754;26;19998;-73
2024/04/15 11:12:25;;;;;;;7.00;2.15;;;;;;;13.94;100.00;100472.19;5620061;26;19991;-73
2024/04/15 11:14:58;;;;;;;16.45;2.33;;;;;;;14.11;100.00;100463.81;5620464;26;20006;-73
2024/04/15 11:17:30;;;;;;;16.38;2.70;;;;;;;14.06;100.00;100445.53;5622274;26;20002;-73
2024/04/15 11:20:08;;;;;;;6.75;2.20;;;;;;;14.05;100.00;100432.22;5623615;26;20015;-73
2024/04/15 11:22:39;;;;;;;12.50;2.95;;;;;;;14.28;100.00;100418.44;5627736;26;20015;-73
2024/04/15 11:25:11;;;;;;;13.15;2.67;;;;;;;14.22;100.00;100412.81;5623029;26;20062;-73
2024/04/15 11:27:49;;;;;;;15.38;2.92;;;;;;;14.06;100.00;100410.47;5625410;26;19991;-73
2024/04/15 11:30:38;;;;;;;;;;;;;;;14.41;100.00;100403.16;5623911;26;20083;-73